Time;durP1;ratioP1;P1;durP2;ratioP2;P2;SDS_P1;SDS_P2;PMS_P1;PMS_P2;Temp;Humidity;BMP_temperature;BMP_pressure;BME280_temperature;BME280_humidity;BME280_pressure;Samples;Min_cycle;Max_cycle;Signal;HPM_P1;HPM_P2
2022/01/15 00:02:17;;;;;;;;;;;;;;;20.21;40.73;103109.88;4992561;28;20325;-86
2022/01/15 00:04:43;;;;;;;;;;;;;;;20.22;40.98;103111.56;4992746;28;20421;-88
2022/01/15 00:07:08;;;;;;;;;;;;;;;20.22;40.73;103106.91;4991185;28;20017;-87
2022/01/15 00:09:33;;;;;;;;;;;;;;;20.23;40.78;103107.72;5002675;28;20333;-87
2022/01/15 00:11:58;;;;;;;;;;;;;;;20.23;40.97;103102.25;4992812;28;20259;-86
2022/01/15 00:14:28;;;;;;;;;;;;;;;20.23;40.95;103100.31;4990694;28;20295;-86
2022/01/15 00:17:05;;;;;;;;;;;;;;;20.24;40.82;103103.91;4985045;28;19922;-85
2022/01/15 00:19:42;;;;;;;;;;;;;;;20.25;40.80;103109.13;4991375;28;19958;-85
2022/01/15 00:22:12;;;;;;;;;;;;;;;20.25;40.98;103091.84;4992764;28;19973;-85
2022/01/15 00:24:37;;;;;;;;;;;;;;;20.25;40.68;103095.41;4992313;28;20503;-85
2022/01/15 00:27:03;;;;;;;;;;;;;;;20.25;40.93;103095.41;5008311;28;19918;-85
2022/01/15 00:29:30;;;;;;;;;;;;;;;20.27;40.64;103095.19;4980149;28;19922;-85
2022/01/15 00:31:55;;;;;;;;;;;;;;;20.27;40.72;103082.28;4991233;28;20449;-85
2022/01/15 00:34:21;;;;;;;;;;;;;;;20.26;40.81;103086.13;5007390;28;20220;-85
2022/01/15 00:36:46;;;;;;;;;;;;;;;20.26;40.79;103088.00;4991776;28;20432;-86
2022/01/15 00:39:11;;;;;;;;;;;;;;;20.26;40.68;103091.59;4998091;28;19953;-85
2022/01/15 00:41:36;;;;;;;;;;;;;;;20.26;40.74;103080.63;4974968;28;19975;-85
2022/01/15 00:44:02;;;;;;;;;;;;;;;20.25;40.73;103072.63;4991453;28;19926;-85
2022/01/15 00:46:27;;;;;;;;;;;;;;;20.25;40.66;103078.94;4990424;28;20271;-86
2022/01/15 00:48:52;;;;;;;;;;;;;;;20.25;40.50;103078.13;4988411;28;19933;-85
2022/01/15 00:51:17;;;;;;;;;;;;;;;20.24;40.78;103084.72;4991150;28;19975;-85
2022/01/15 00:53:43;;;;;;;;;;;;;;;20.24;40.94;103076.47;4991161;28;19917;-85
2022/01/15 00:56:08;;;;;;;;;;;;;;;20.23;40.69;103075.63;4988125;28;19947;-85
2022/01/15 00:58:33;;;;;;;;;;;;;;;20.24;40.71;103071.81;4974901;28;19954;-85
2022/01/15 01:00:58;;;;;;;;;;;;;;;20.23;40.62;103058.31;4989464;28;20389;-84
2022/01/15 01:03:24;;;;;;;;;;;;;;;20.23;40.48;103063.81;4975425;28;20366;-84
2022/01/15 01:05:49;;;;;;;;;;;;;;;20.22;40.46;103060.25;5006954;28;19926;-85
2022/01/15 01:08:14;;;;;;;;;;;;;;;20.21;40.62;103055.84;5007046;28;19926;-85
2022/01/15 01:10:59;;;;;;;;;;;;;;;20.22;40.44;103053.94;4989460;28;20301;-85
2022/01/15 01:24:21;;;;;;;;;;;;;;;20.22;40.50;103052.00;4991677;28;20327;-85
2022/01/15 01:27:43;;;;;;;;;;;;;;;20.21;40.51;103042.13;4988765;28;20366;-85
2022/01/15 01:34:53;;;;;;;;;;;;;;;20.21;40.15;103044.03;4990656;28;19963;-84
2022/01/15 01:37:30;;;;;;;;;;;;;;;20.20;40.11;103037.72;4991325;28;20012;-85
2022/01/15 01:40:13;;;;;;;;;;;;;;;20.21;40.23;103041.28;4991408;28;19941;-84
2022/01/15 01:42:43;;;;;;;;;;;;;;;20.20;40.22;103031.41;4996132;28;19922;-84
2022/01/15 01:45:12;;;;;;;;;;;;;;;20.19;40.25;103025.09;4990881;28;20580;-85
2022/01/15 01:47:41;;;;;;;;;;;;;;;20.17;40.13;103024.50;4991816;28;19928;-85
2022/01/15 01:50:39;;;;;;;;;;;;;;;20.17;40.30;103015.44;4989820;28;19927;-84
2022/01/15 01:53:04;;;;;;;;;;;;;;;20.17;40.12;103018.19;4983061;28;19931;-84
2022/01/15 01:55:29;;;;;;;;;;;;;;;20.16;40.10;103017.38;4970145;28;19922;-84
2022/01/15 01:57:56;;;;;;;;;;;;;;;20.16;40.14;103016.50;4965645;28;19968;-84
2022/01/15 02:00:22;;;;;;;;;;;;;;;20.15;40.31;103015.69;4990333;28;19924;-84
2022/01/15 02:02:48;;;;;;;;;;;;;;;20.14;40.04;103013.22;4989517;28;19922;-84
2022/01/15 02:05:14;;;;;;;;;;;;;;;20.13;40.18;103009.59;4991967;28;19929;-84
2022/01/15 02:07:45;;;;;;;;;;;;;;;20.14;40.30;103007.72;4997857;28;20268;-84
2022/01/15 02:10:13;;;;;;;;;;;;;;;20.12;40.34;102999.72;4991933;28;19961;-86
2022/01/15 02:12:38;;;;;;;;;;;;;;;20.11;40.07;102989.84;4992120;28;19925;-85
2022/01/15 02:15:04;;;;;;;;;;;;;;;20.11;40.19;102998.09;5007486;28;19946;-85
2022/01/15 02:17:29;;;;;;;;;;;;;;;20.11;40.29;102992.59;4989841;28;19926;-85
2022/01/15 02:20:11;;;;;;;;;;;;;;;20.09;40.08;102990.09;4989919;28;20000;-84
2022/01/15 02:25:20;;;;;;;;;;;;;;;20.08;40.20;102980.22;4995277;28;19937;-84
2022/01/15 02:27:45;;;;;;;;;;;;;;;20.08;40.04;102980.22;4993374;28;19955;-85
2022/01/15 02:30:11;;;;;;;;;;;;;;;20.08;40.14;102971.13;4992594;28;19926;-85
2022/01/15 02:32:36;;;;;;;;;;;;;;;20.07;39.90;102972.22;4994838;28;19949;-84
2022/01/15 02:35:03;;;;;;;;;;;;;;;20.07;39.97;102970.31;4994878;28;19925;-84
2022/01/15 02:37:30;;;;;;;;;;;;;;;20.06;39.71;102974.13;4994484;28;19930;-83
2022/01/15 02:39:55;;;;;;;;;;;;;;;20.06;39.95;102967.81;4995431;28;20040;-84
2022/01/15 02:42:23;;;;;;;;;;;;;;;20.05;39.92;102958.75;4981770;28;20374;-85
2022/01/15 02:44:48;;;;;;;;;;;;;;;20.04;39.83;102959.84;4977037;28;19952;-84
2022/01/15 02:50:07;;;;;;;;;;;;;;;20.05;39.76;102957.91;4977234;28;19926;-85
2022/01/15 02:52:32;;;;;;;;;;;;;;;20.03;39.79;102952.72;4984346;28;20321;-83
2022/01/15 02:54:57;;;;;;;;;;;;;;;20.03;39.85;102952.72;4993487;28;19936;-84
2022/01/15 02:57:22;;;;;;;;;;;;;;;20.01;39.69;102952.13;5005027;28;20371;-83
2022/01/15 02:59:48;;;;;;;;;;;;;;;20.02;39.82;102958.44;4981989;28;20278;-84
2022/01/15 03:02:13;;;;;;;;;;;;;;;20.00;39.86;102933.16;4996190;28;20270;-85
2022/01/15 03:04:38;;;;;;;;;;;;;;;20.00;39.76;102941.38;4993087;28;20400;-84
2022/01/15 03:07:05;;;;;;;;;;;;;;;19.99;39.53;102946.06;4991867;28;19918;-84
2022/01/15 03:09:31;;;;;;;;;;;;;;;19.99;39.62;102947.97;5000267;28;19920;-86
2022/01/15 03:12:01;;;;;;;;;;;;;;;19.98;39.74;102936.16;5000539;28;19961;-86
2022/01/15 03:14:30;;;;;;;;;;;;;;;19.98;39.69;102935.31;4994199;28;20318;-86
2022/01/15 03:16:55;;;;;;;;;;;;;;;19.98;39.73;102930.69;4999308;28;19976;-86
2022/01/15 03:19:20;;;;;;;;;;;;;;;19.97;39.74;102929.00;4998172;28;19922;-85
2022/01/15 03:21:46;;;;;;;;;;;;;;;19.96;39.62;102926.50;4999641;28;19933;-85
2022/01/15 03:24:11;;;;;;;;;;;;;;;19.96;39.90;102929.25;4978323;28;20014;-85
2022/01/15 03:26:36;;;;;;;;;;;;;;;19.95;39.76;102917.47;4980929;28;20025;-84
2022/01/15 03:29:02;;;;;;;;;;;;;;;19.94;39.76;102923.22;4999362;28;20374;-85
2022/01/15 03:31:27;;;;;;;;;;;;;;;19.93;39.77;102916.88;4994930;28;19922;-85
2022/01/15 03:33:52;;;;;;;;;;;;;;;19.93;39.50;102921.53;5011697;28;19922;-85
2022/01/15 03:36:18;;;;;;;;;;;;;;;19.91;39.72;102918.22;4999884;28;19921;-85
2022/01/15 03:38:43;;;;;;;;;;;;;;;19.91;39.59;102912.72;4981327;28;19926;-85
2022/01/15 03:41:08;;;;;;;;;;;;;;;19.89;39.66;102916.56;4981366;28;20302;-85
2022/01/15 03:43:33;;;;;;;;;;;;;;;19.88;39.50;102905.81;4998062;28;19961;-85
2022/01/15 03:45:59;;;;;;;;;;;;;;;19.87;39.81;102899.53;4988507;28;19926;-85
2022/01/15 03:48:25;;;;;;;;;;;;;;;19.85;39.57;102907.16;4981135;28;19925;-85
2022/01/15 03:50:51;;;;;;;;;;;;;;;19.85;39.51;102904.41;4991974;28;19937;-84
2022/01/15 03:53:16;;;;;;;;;;;;;;;19.83;39.58;102903.88;4998665;28;19921;-84
2022/01/15 03:55:41;;;;;;;;;;;;;;;19.83;39.61;102913.97;4998261;28;19926;-85
2022/01/15 03:58:06;;;;;;;;;;;;;;;19.82;39.71;102909.59;4998259;28;19969;-84
2022/01/15 04:00:32;;;;;;;;;;;;;;;19.80;39.57;102896.13;4997996;28;19926;-85
2022/01/15 04:02:57;;;;;;;;;;;;;;;19.80;39.66;102904.34;4993635;28;20178;-84
2022/01/15 04:05:22;;;;;;;;;;;;;;;19.78;39.58;102898.31;5006688;28;19925;-85
2022/01/15 04:07:48;;;;;;;;;;;;;;;19.78;39.59;102897.47;5010615;28;19926;-85
2022/01/15 04:10:15;;;;;;;;;;;;;;;19.77;39.41;102904.88;4996037;28;20017;-85
2022/01/15 04:12:40;;;;;;;;;;;;;;;19.77;39.41;102904.03;4998299;28;19988;-84
2022/01/15 04:15:07;;;;;;;;;;;;;;;19.76;39.68;102896.91;4996414;28;19949;-84
2022/01/15 04:17:32;;;;;;;;;;;;;;;19.75;39.59;102897.97;4997750;28;19932;-85
2022/01/15 04:19:58;;;;;;;;;;;;;;;19.75;39.60;102895.22;4992634;28;19949;-84
2022/01/15 04:22:24;;;;;;;;;;;;;;;19.73;39.66;102898.25;4994382;28;20473;-85
2022/01/15 04:24:49;;;;;;;;;;;;;;;19.73;39.67;102894.66;4992794;28;19921;-84
2022/01/15 04:27:14;;;;;;;;;;;;;;;19.72;39.37;102884.78;4997234;28;19928;-83
2022/01/15 04:29:40;;;;;;;;;;;;;;;19.72;39.49;102879.28;4967395;28;20428;-85
2022/01/15 04:32:05;;;;;;;;;;;;;;;19.71;39.66;102875.72;4993372;28;20045;-85
2022/01/15 04:34:31;;;;;;;;;;;;;;;19.71;39.47;102875.72;5014401;28;19949;-85
2022/01/15 04:37:09;;;;;;;;;;;;;;;19.70;39.41;102871.31;4996645;28;20006;-85
2022/01/15 04:39:34;;;;;;;;;;;;;;;19.69;39.37;102877.06;4997467;28;19922;-84
2022/01/15 04:42:00;;;;;;;;;;;;;;;19.67;39.37;102877.28;5012258;28;19922;-84
2022/01/15 04:44:25;;;;;;;;;;;;;;;19.67;39.40;102867.16;4977719;28;20282;-85
2022/01/15 04:46:52;;;;;;;;;;;;;;;19.66;39.52;102860.00;4997179;28;19926;-85
2022/01/15 04:49:17;;;;;;;;;;;;;;;19.66;39.44;102861.91;4996860;28;19928;-84
2022/01/15 04:51:43;;;;;;;;;;;;;;;19.65;39.30;102854.75;4995505;28;20016;-83
2022/01/15 04:54:08;;;;;;;;;;;;;;;19.64;39.51;102851.19;5000555;28;19926;-85
2022/01/15 04:56:34;;;;;;;;;;;;;;;19.64;39.61;102859.41;4997662;28;20006;-84
2022/01/15 04:58:59;;;;;;;;;;;;;;;19.63;39.41;102846.78;4995387;28;19957;-85
2022/01/15 05:01:24;;;;;;;;;;;;;;;19.62;39.55;102845.13;4997651;28;19968;-84
2022/01/15 05:03:49;;;;;;;;;;;;;;;19.62;39.58;102836.06;4995885;28;19922;-85
2022/01/15 05:06:15;;;;;;;;;;;;;;;19.61;39.62;102832.50;4997003;28;19986;-85
2022/01/15 05:08:41;;;;;;;;;;;;;;;19.60;39.32;102830.81;4999049;28;19917;-85
2022/01/15 05:11:28;;;;;;;;;;;;;;;19.59;39.46;102829.19;4989276;28;19945;-86
2022/01/15 05:13:53;;;;;;;;;;;;;;;19.58;39.53;102827.53;5010156;28;19917;-84
2022/01/15 05:16:19;;;;;;;;;;;;;;;19.57;39.54;102820.38;4991218;28;20064;-84
2022/01/15 05:18:44;;;;;;;;;;;;;;;19.57;39.54;102822.28;5012938;28;19921;-85
2022/01/15 05:21:09;;;;;;;;;;;;;;;19.55;39.43;102814.31;4997494;28;20371;-85
2022/01/15 05:23:34;;;;;;;;;;;;;;;19.55;39.58;102808.81;4994605;28;19932;-85
2022/01/15 05:26:00;;;;;;;;;;;;;;;19.55;39.38;102806.09;4993647;28;20342;-85
2022/01/15 05:28:25;;;;;;;;;;;;;;;19.54;39.55;102800.88;4979877;28;19973;-84
2022/01/15 05:30:50;;;;;;;;;;;;;;;19.53;39.64;102800.06;4994004;28;19933;-84
2022/01/15 05:33:16;;;;;;;;;;;;;;;19.54;39.64;102806.34;4997399;28;19922;-85
2022/01/15 05:35:41;;;;;;;;;;;;;;;19.51;39.72;102795.91;4993380;28;20375;-84
2022/01/15 05:38:07;;;;;;;;;;;;;;;19.50;39.42;102797.78;5009884;28;20361;-84
2022/01/15 05:40:32;;;;;;;;;;;;;;;19.50;39.48;102792.31;5011272;28;19929;-84
2022/01/15 05:42:57;;;;;;;;;;;;;;;19.49;39.72;102796.16;4991866;28;19926;-84
2022/01/15 05:45:24;;;;;;;;;;;;;;;19.49;39.49;102787.09;5010359;28;19934;-84
2022/01/15 05:47:49;;;;;;;;;;;;;;;19.48;39.42;102786.28;4973226;28;19926;-83
2022/01/15 05:50:15;;;;;;;;;;;;;;;19.48;39.39;102779.94;5010959;28;19933;-84
2022/01/15 05:52:40;;;;;;;;;;;;;;;19.46;39.66;102780.22;4979769;28;19937;-85
2022/01/15 05:55:06;;;;;;;;;;;;;;;19.45;39.41;102773.91;4980265;28;19929;-84
2022/01/15 05:57:31;;;;;;;;;;;;;;;19.44;39.56;102772.22;4997694;28;19937;-84
2022/01/15 05:59:56;;;;;;;;;;;;;;;19.43;39.64;102770.59;4998143;28;20516;-85
2022/01/15 06:02:22;;;;;;;;;;;;;;;19.43;39.52;102769.75;5001364;28;19930;-83
2022/01/15 06:04:48;;;;;;;;;;;;;;;19.42;39.44;102763.44;4998746;28;19984;-85
2022/01/15 06:07:13;;;;;;;;;;;;;;;19.41;39.39;102764.53;4999993;28;19933;-85
2022/01/15 06:09:38;;;;;;;;;;;;;;;19.41;39.42;102767.25;4989231;28;20441;-85
2022/01/15 06:12:04;;;;;;;;;;;;;;;19.42;39.50;102765.34;4995457;28;19926;-85
2022/01/15 06:14:30;;;;;;;;;;;;;;;19.40;39.44;102764.75;5000249;28;19948;-85
2022/01/15 06:16:56;;;;;;;;;;;;;;;19.38;39.46;102765.03;4999596;28;19981;-85
2022/01/15 06:19:21;;;;;;;;;;;;;;;19.38;39.37;102767.78;4997089;28;19953;-84
2022/01/15 06:21:46;;;;;;;;;;;;;;;19.38;39.43;102770.50;4998843;28;19976;-85
2022/01/15 06:24:12;;;;;;;;;;;;;;;19.36;39.33;102775.41;4984298;28;20412;-84
2022/01/15 06:26:37;;;;;;;;;;;;;;;19.37;39.38;102770.75;5001671;28;19929;-85
2022/01/15 06:29:02;;;;;;;;;;;;;;;19.36;39.38;102774.59;4998668;28;19930;-85
2022/01/15 06:31:29;;;;;;;;;;;;;;;19.35;39.45;102767.44;4997559;28;19926;-85
2022/01/15 06:33:54;;;;;;;;;;;;;;;19.35;39.43;102771.03;4998961;28;19933;-83
2022/01/15 06:36:20;;;;;;;;;;;;;;;19.35;39.59;102767.44;5001115;28;19926;-85
2022/01/15 06:38:47;;;;;;;;;;;;;;;19.34;39.27;102766.59;4999024;28;19926;-84
2022/01/15 06:41:12;;;;;;;;;;;;;;;19.33;39.57;102761.41;5003880;28;19932;-84
2022/01/15 06:43:37;;;;;;;;;;;;;;;19.32;39.54;102766.03;4997544;28;19965;-85
2022/01/15 06:46:02;;;;;;;;;;;;;;;19.32;39.44;102759.72;4998407;28;19968;-85
2022/01/15 06:48:29;;;;;;;;;;;;;;;19.32;39.41;102759.72;5001284;28;19933;-85
2022/01/15 06:50:54;;;;;;;;;;;;;;;19.31;39.64;102755.34;4998386;28;19926;-84
2022/01/15 06:53:19;;;;;;;;;;;;;;;19.30;39.47;102762.72;4996829;28;19991;-85
2022/01/15 06:55:49;;;;;;;;;;;;;;;19.30;39.31;102751.75;4999432;28;19940;-85
2022/01/15 06:58:14;;;;;;;;;;;;;;;19.30;39.30;102753.66;5013497;28;19922;-85
2022/01/15 07:00:39;;;;;;;;;;;;;;;19.29;39.45;102749.28;4998911;28;19932;-84
2022/01/15 07:03:04;;;;;;;;;;;;;;;19.29;39.49;102746.53;5012418;28;19982;-84
2022/01/15 07:05:30;;;;;;;;;;;;;;;19.27;39.40;102749.50;4995804;28;19926;-83
2022/01/15 07:07:56;;;;;;;;;;;;;;;19.27;39.39;102749.50;4995113;28;19922;-86
2022/01/15 07:10:21;;;;;;;;;;;;;;;19.27;39.51;102748.69;4996873;28;19926;-86
2022/01/15 07:12:47;;;;;;;;;;;;;;;19.27;39.44;102754.16;4997250;28;19925;-86
2022/01/15 07:15:12;;;;;;;;;;;;;;;19.27;39.21;102759.66;4998528;28;20366;-85
2022/01/15 07:17:41;;;;;;;;;;;;;;;19.26;39.54;102755.28;4997333;28;19930;-84
2022/01/15 07:20:07;;;;;;;;;;;;;;;19.24;39.47;102752.78;4996981;28;20378;-84
2022/01/15 07:22:32;;;;;;;;;;;;;;;19.23;39.65;102757.44;4998013;28;20025;-85
2022/01/15 07:24:57;;;;;;;;;;;;;;;19.23;39.58;102765.66;5009344;28;20283;-85
2022/01/15 07:27:23;;;;;;;;;;;;;;;19.22;39.52;102757.66;4996394;28;19925;-85
2022/01/15 07:29:48;;;;;;;;;;;;;;;19.23;39.58;102767.56;4997545;28;19981;-85
2022/01/15 07:32:13;;;;;;;;;;;;;;;19.21;39.58;102773.28;4997999;28;19947;-86
2022/01/15 07:34:38;;;;;;;;;;;;;;;19.21;39.54;102773.28;4972996;28;19930;-85
2022/01/15 07:37:04;;;;;;;;;;;;;;;19.21;39.54;102773.28;4996083;28;19976;-85
2022/01/15 07:39:29;;;;;;;;;;;;;;;19.21;39.47;102767.81;4996909;28;20358;-85
2022/01/15 07:41:56;;;;;;;;;;;;;;;19.19;39.47;102764.47;4992768;28;19926;-85
2022/01/15 07:44:21;;;;;;;;;;;;;;;19.19;39.41;102766.41;4997295;28;20340;-84
2022/01/15 07:46:46;;;;;;;;;;;;;;;19.18;39.47;102762.00;4997408;28;19928;-86
2022/01/15 07:49:11;;;;;;;;;;;;;;;19.18;39.40;102768.31;4997720;28;20645;-85
2022/01/15 07:51:37;;;;;;;;;;;;;;;19.17;39.43;102750.19;4992762;28;19996;-85
2022/01/15 07:54:02;;;;;;;;;;;;;;;19.17;39.36;102761.16;4998890;28;19930;-84
2022/01/15 07:56:28;;;;;;;;;;;;;;;19.17;39.79;102763.91;4997171;28;19918;-85
2022/01/15 07:58:53;;;;;;;;;;;;;;;19.16;39.44;102758.69;4997414;28;19956;-85
2022/01/15 08:01:18;;;;;;;;;;;;;;;19.16;39.36;102758.69;4995692;28;19965;-85
2022/01/15 08:03:44;;;;;;;;;;;;;;;19.16;39.46;102761.44;4990031;28;19968;-84
2022/01/15 08:06:10;;;;;;;;;;;;;;;19.16;39.25;102758.69;4992739;28;19928;-85
2022/01/15 08:08:35;;;;;;;;;;;;;;;19.15;39.61;102755.13;5009957;28;19918;-86
2022/01/15 08:11:01;;;;;;;;;;;;;;;19.15;39.48;102757.88;4992149;28;19922;-85
2022/01/15 08:13:26;;;;;;;;;;;;;;;19.14;39.64;102749.88;5012311;28;20406;-85
2022/01/15 08:15:52;;;;;;;;;;;;;;;19.15;39.49;102751.53;4997671;28;19926;-86
2022/01/15 08:18:18;;;;;;;;;;;;;;;19.14;39.36;102747.16;4997947;28;19918;-85
2022/01/15 08:20:44;;;;;;;;;;;;;;;19.14;39.32;102750.72;4995782;28;19933;-85
2022/01/15 08:23:09;;;;;;;;;;;;;;;19.14;39.53;102749.88;4992606;28;19922;-84
2022/01/15 08:25:34;;;;;;;;;;;;;;;19.13;39.44;102743.59;4988448;28;20280;-85
2022/01/15 08:28:00;;;;;;;;;;;;;;;19.12;39.45;102739.16;4995755;28;20041;-85
2022/01/15 08:30:25;;;;;;;;;;;;;;;19.12;39.61;102743.81;4995440;28;20386;-84
2022/01/15 08:32:51;;;;;;;;;;;;;;;19.11;39.59;102739.44;4994005;28;20000;-86
2022/01/15 08:35:16;;;;;;;;;;;;;;;19.12;39.47;102744.66;4995147;28;19917;-84
2022/01/15 08:37:41;;;;;;;;;;;;;;;19.12;39.53;102738.34;4996593;28;19926;-83
2022/01/15 08:40:08;;;;;;;;;;;;;;;19.12;39.42;102741.09;5011904;28;19949;-85
2022/01/15 08:42:34;;;;;;;;;;;;;;;19.10;39.51;102738.63;4997099;28;19921;-84
2022/01/15 08:44:59;;;;;;;;;;;;;;;19.10;39.53;102737.75;4997690;28;20021;-82
2022/01/15 08:47:25;;;;;;;;;;;;;;;19.10;39.35;102735.88;4996304;28;19961;-83
2022/01/15 08:49:50;;;;;;;;;;;;;;;19.09;39.71;102731.47;4997891;28;20490;-84
2022/01/15 08:52:15;;;;;;;;;;;;;;;19.10;39.47;102729.53;4972666;28;19933;-83
2022/01/15 08:54:41;;;;;;;;;;;;;;;19.11;39.67;102725.75;5000584;28;19929;-84
2022/01/15 08:57:06;;;;;;;;;;;;;;;19.12;39.55;102724.66;4999043;28;19976;-83
2022/01/15 08:59:31;;;;;;;;;;;;;;;19.13;39.69;102721.66;4995326;28;19949;-85
2022/01/15 09:01:58;;;;;;;;;;;;;;;19.16;39.90;102725.81;4995974;28;19976;-83
2022/01/15 09:04:23;;;;;;;;;;;;;;;19.16;39.70;102715.69;4995146;28;19925;-84
2022/01/15 09:06:49;;;;;;;;;;;;;;;19.18;39.71;102716.25;4995007;28;20345;-85
2022/01/15 09:09:14;;;;;;;;;;;;;;;19.19;39.87;102717.91;5011600;28;19925;-84
2022/01/15 09:11:39;;;;;;;;;;;;;;;19.22;39.73;102714.66;4996791;28;19921;-84
2022/01/15 09:14:04;;;;;;;;;;;;;;;19.24;39.94;102717.97;4994760;28;19941;-84
2022/01/15 09:16:30;;;;;;;;;;;;;;;19.27;39.89;102721.28;4996472;28;19937;-84
2022/01/15 09:18:56;;;;;;;;;;;;;;;19.29;39.92;102719.97;4992578;28;19926;-84
2022/01/15 09:21:22;;;;;;;;;;;;;;;19.31;40.00;102708.75;5008771;28;19925;-84
2022/01/15 09:23:47;;;;;;;;;;;;;;;19.34;39.99;102713.72;5000490;28;20268;-84
2022/01/15 09:26:20;;;;;;;;;;;;;;;19.37;39.93;102705.00;4987425;28;19980;-84
2022/01/15 09:31:30;;;;;;;;;;;;;;;19.41;40.34;102711.63;4998869;28;20326;-84
2022/01/15 09:33:55;;;;;;;;;;;;;;;19.43;40.23;102707.56;4987499;28;19923;-84
2022/01/15 09:36:20;;;;;;;;;;;;;;;19.45;40.16;102707.28;4975154;28;20335;-84
2022/01/15 09:38:46;;;;;;;;;;;;;;;19.46;40.25;102706.22;4974599;28;20285;-84
2022/01/15 09:41:11;;;;;;;;;;;;;;;19.48;40.22;102697.72;4989187;28;20013;-84
2022/01/15 09:43:38;;;;;;;;;;;;;;;19.50;40.23;102701.84;4987459;28;19922;-84
2022/01/15 09:46:04;;;;;;;;;;;;;;;19.53;40.16;102712.34;4998739;28;19921;-84
2022/01/15 09:48:30;;;;;;;;;;;;;;;19.55;40.33;102709.31;5000391;28;19932;-85
2022/01/15 09:50:56;;;;;;;;;;;;;;;19.56;40.40;102705.50;4995902;28;19957;-86
2022/01/15 09:53:21;;;;;;;;;;;;;;;19.57;40.41;102707.97;4998819;28;20278;-85
2022/01/15 09:55:47;;;;;;;;;;;;;;;19.59;40.28;102711.31;4998087;28;20354;-84
2022/01/15 09:58:12;;;;;;;;;;;;;;;19.61;40.37;102717.38;4998767;28;19944;-84
2022/01/15 10:00:37;;;;;;;;;;;;;;;19.62;40.28;102720.94;4991855;28;19929;-84
2022/01/15 10:03:03;;;;;;;;;;;;;;;19.64;40.23;102716.03;4981791;28;19933;-84
2022/01/15 10:05:28;;;;;;;;;;;;;;;19.65;40.28;102723.16;4997918;28;19961;-84
2022/01/15 10:07:57;;;;;;;;;;;;;;;19.66;40.48;102717.44;4981240;28;20020;-83
2022/01/15 10:10:22;;;;;;;;;;;;;;;19.69;40.48;102723.53;4995857;28;19925;-84
2022/01/15 10:12:48;;;;;;;;;;;;;;;19.69;40.37;102723.53;4997754;28;19936;-84
2022/01/15 10:15:14;;;;;;;;;;;;;;;19.70;40.50;102715.03;4997274;28;20001;-83
2022/01/15 10:17:40;;;;;;;;;;;;;;;19.72;40.30;102712.03;4999489;28;20018;-84
2022/01/15 10:20:05;;;;;;;;;;;;;;;19.72;40.12;102710.13;4982307;28;19933;-83
2022/01/15 10:22:34;;;;;;;;;;;;;;;19.73;40.35;102711.78;4999392;28;19950;-84
2022/01/15 10:25:01;;;;;;;;;;;;;;;19.75;40.34;102703.28;5000135;28;19922;-85
2022/01/15 10:27:31;;;;;;;;;;;;;;;19.77;40.33;102709.34;4997155;28;20020;-86
2022/01/15 10:30:10;;;;;;;;;;;;;;;19.77;40.33;102701.94;4997989;28;19922;-86
2022/01/15 10:32:58;;;;;;;;;;;;;;;19.79;40.28;102698.97;4998027;28;19921;-84
2022/01/15 10:35:25;;;;;;;;;;;;;;;19.79;40.51;102697.03;4993317;28;19925;-83
2022/01/15 10:37:55;;;;;;;;;;;;;;;19.80;40.41;102698.69;4998088;28;20366;-83
2022/01/15 10:40:28;;;;;;;;;;;;;;;19.81;40.66;102694.88;4988648;28;19929;-84
2022/01/15 10:42:55;;;;;;;;;;;;;;;19.82;40.57;102702.00;5013990;28;19933;-84
2022/01/15 10:45:21;;;;;;;;;;;;;;;19.83;40.42;102703.69;4999983;28;19992;-84
2022/01/15 10:47:48;;;;;;;;;;;;;;;19.85;40.47;102703.41;4998846;28;20362;-85
2022/01/15 10:50:33;;;;;;;;;;;;;;;19.87;40.61;102706.72;4995308;28;19930;-86
2022/01/15 10:53:03;;;;;;;;;;;;;;;19.87;40.64;102699.31;5007436;28;20302;-87
2022/01/15 10:55:30;;;;;;;;;;;;;;;19.87;40.67;102696.56;4999326;28;20464;-81
2022/01/15 10:58:13;;;;;;;;;;;;;;;19.88;40.64;102695.50;4981743;28;19926;-79
2022/01/15 11:00:40;;;;;;;;;;;;;;;19.91;40.92;102685.06;4998094;28;19921;-79
2022/01/15 11:03:17;;;;;;;;;;;;;;;19.91;41.02;102683.19;4998795;28;19937;-88
2022/01/15 11:05:42;;;;;;;;;;;;;;;19.93;40.97;102680.16;4996327;28;19929;-86
2022/01/15 11:08:16;;;;;;;;;;;;;;;19.95;41.09;102686.22;4988032;28;19925;-87
2022/01/15 11:11:00;;;;;;;;;;;;;;;19.95;40.82;102678.00;5009934;28;20056;-87
2022/01/15 11:13:30;;;;;;;;;;;;;;;19.95;41.12;102687.06;4995197;28;19970;-88
2022/01/15 11:16:00;;;;;;;;;;;;;;;19.96;40.96;102679.66;4991858;28;19921;-86
2022/01/15 11:18:25;;;;;;;;;;;;;;;19.96;40.76;102680.50;4996997;28;19922;-87
2022/01/15 11:20:52;;;;;;;;;;;;;;;19.95;40.73;102678.81;4997892;28;19926;-88
2022/01/15 11:23:22;;;;;;;;;;;;;;;19.96;40.91;102675.00;4994723;28;19922;-85
2022/01/15 11:25:47;;;;;;;;;;;;;;;19.96;40.58;102685.97;4982075;28;20299;-89
2022/01/15 11:28:13;;;;;;;;;;;;;;;19.96;40.63;102683.25;5007709;28;19948;-90
2022/01/15 11:30:39;;;;;;;;;;;;;;;19.96;40.63;102675.00;4995379;28;19925;-87
2022/01/15 11:33:04;;;;;;;;;;;;;;;19.95;40.44;102676.06;4991275;28;19926;-86
2022/01/15 11:35:41;;;;;;;;;;;;;;;19.95;40.63;102665.09;5003164;28;20422;-86
2022/01/15 11:38:07;;;;;;;;;;;;;;;19.95;40.44;102659.63;4992431;28;20028;-86
2022/01/15 11:40:34;;;;;;;;;;;;;;;19.96;40.54;102663.19;4992586;28;19924;-86
2022/01/15 11:43:18;;;;;;;;;;;;;;;19.96;40.62;102647.59;4998442;28;20279;-86
2022/01/15 11:45:43;;;;;;;;;;;;;;;19.95;40.62;102647.81;5004996;28;20008;-89
2022/01/15 11:48:20;;;;;;;;;;;;;;;19.94;40.54;102649.75;5006201;28;20389;-84
2022/01/15 11:51:06;;;;;;;;;;;;;;;19.95;40.43;102640.41;5009957;28;19949;-91
2022/01/15 11:53:51;;;;;;;;;;;;;;;19.95;40.53;102639.59;4991602;28;20429;-94
2022/01/15 11:56:18;;;;;;;;;;;;;;;19.96;40.54;102638.50;5009411;28;19929;-93
2022/01/15 11:58:44;;;;;;;;;;;;;;;19.95;40.42;102643.16;4992413;28;19953;-94
2022/01/15 12:01:29;;;;;;;;;;;;;;;19.97;40.32;102637.44;4995209;28;19917;-94
2022/01/15 12:04:15;;;;;;;;;;;;;;;19.98;40.54;102634.44;4983200;28;22540;-94
2022/01/15 12:07:10;;;;;;;;;;;;;;;19.99;40.52;102621.53;5008632;28;19922;-92
2022/01/15 12:09:42;;;;;;;;;;;;;;;19.99;40.24;102619.63;4976586;28;19929;-93
2022/01/15 12:12:17;;;;;;;;;;;;;;;20.00;40.39;102624.00;4987589;28;19953;-92
2022/01/15 12:14:52;;;;;;;;;;;;;;;20.01;40.24;102624.88;4995960;28;19917;-89
2022/01/15 12:17:31;;;;;;;;;;;;;;;20.01;40.47;102614.72;5017737;28;19921;-93
2022/01/15 12:20:02;;;;;;;;;;;;;;;20.03;40.26;102618.03;5015134;28;19949;-92
2022/01/15 12:22:36;;;;;;;;;;;;;;;20.04;40.31;102613.38;4995247;28;19972;-94
2022/01/15 12:25:05;;;;;;;;;;;;;;;20.03;40.33;102598.81;4995188;28;19929;-93
2022/01/15 12:27:31;;;;;;;;;;;;;;;20.04;40.36;102596.91;4993976;28;19921;-93
2022/01/15 12:29:58;;;;;;;;;;;;;;;20.05;40.37;102595.81;4986378;28;20005;-92
2022/01/15 12:32:28;;;;;;;;;;;;;;;20.05;40.32;102588.38;4977174;28;19922;-94
2022/01/15 12:34:53;;;;;;;;;;;;;;;20.05;40.43;102574.69;4993784;28;20020;-93
2022/01/15 12:37:18;;;;;;;;;;;;;;;20.06;40.47;102565.38;4993292;28;19965;-95
2022/01/15 12:39:44;;;;;;;;;;;;;;;20.07;40.55;102560.72;4992880;28;20004;-93
2022/01/15 12:42:11;;;;;;;;;;;;;;;20.08;40.24;102559.59;4976085;28;19926;-93
2022/01/15 12:44:42;;;;;;;;;;;;;;;20.08;40.46;102560.47;4994143;28;19918;-94
2022/01/15 12:47:07;;;;;;;;;;;;;;;20.09;40.36;102553.88;4992170;28;19933;-94
2022/01/15 12:49:40;;;;;;;;;;;;;;;20.09;40.24;102547.56;5008520;28;20417;-94
2022/01/15 12:52:10;;;;;;;;;;;;;;;20.09;40.16;102548.38;4988133;28;19929;-93
2022/01/15 12:54:38;;;;;;;;;;;;;;;20.09;40.04;102548.38;4989338;28;20008;-93
2022/01/15 12:57:03;;;;;;;;;;;;;;;20.11;40.35;102545.38;4988625;28;19968;-94
2022/01/15 12:59:29;;;;;;;;;;;;;;;20.10;40.22;102547.28;4994225;28;19972;-93
2022/01/15 13:01:54;;;;;;;;;;;;;;;20.11;40.38;102545.38;4992442;28;19925;-93